createdAt,value
2019-03-29T00:01:09.813Z,12.00
2019-03-29T00:02:23.205Z,11.18
2019-03-29T00:03:36.458Z,11.05
2019-03-29T00:04:49.763Z,12.53
2019-03-29T00:06:03.002Z,12.30
2019-03-29T00:07:16.231Z,11.60
2019-03-29T00:08:29.529Z,14.20
2019-03-29T00:09:42.762Z,12.78
2019-03-29T00:10:55.989Z,11.40
2019-03-29T00:12:09.222Z,11.78
2019-03-29T00:13:23.206Z,12.60
2019-03-29T00:14:36.712Z,13.03
2019-03-29T00:15:49.944Z,11.65
2019-03-29T00:17:03.180Z,11.08
2019-03-29T00:18:16.401Z,13.40
2019-03-29T00:19:29.641Z,14.10
2019-03-29T00:20:42.884Z,12.82
2019-03-29T00:21:56.101Z,13.05
2019-03-29T00:23:09.321Z,11.90
2019-03-29T00:24:22.549Z,12.28
2019-03-29T00:25:35.786Z,12.50
2019-03-29T00:26:49.016Z,14.58
2019-03-29T00:28:02.253Z,12.93
2019-03-29T00:29:15.475Z,15.40
2019-03-29T00:30:28.713Z,13.03
2019-03-29T00:31:43.136Z,14.23
2019-03-29T00:32:56.349Z,11.97
2019-03-29T00:34:09.573Z,13.43
2019-03-29T00:35:22.802Z,13.80
2019-03-29T00:36:36.042Z,12.43
2019-03-29T00:37:53.701Z,13.62
2019-03-29T00:39:05.252Z,13.75
2019-03-29T00:40:20.106Z,14.43
2019-03-29T00:41:33.377Z,14.70
2019-03-29T00:42:46.597Z,14.73
2019-03-29T00:44:00.969Z,13.90
2019-03-29T00:45:14.372Z,14.65
2019-03-29T00:46:27.617Z,14.38
2019-03-29T00:47:41.605Z,16.12
2019-03-29T00:48:57.223Z,16.12
2019-03-29T00:50:10.449Z,13.65
2019-03-29T00:51:24.202Z,15.72
2019-03-29T00:52:38.190Z,14.65
2019-03-29T00:53:51.413Z,13.80
2019-03-29T00:55:05.980Z,13.80
2019-03-29T00:56:19.218Z,14.28
2019-03-29T00:57:32.475Z,15.05
2019-03-29T00:58:45.686Z,14.03
2019-03-29T00:59:58.905Z,15.68
2019-03-29T01:01:12.147Z,13.43
2019-03-29T01:02:25.365Z,13.22
2019-03-29T01:03:38.593Z,16.57
2019-03-29T01:04:51.859Z,15.85
2019-03-29T01:06:05.136Z,18.15
2019-03-29T01:07:18.368Z,15.03
2019-03-29T01:08:31.586Z,16.70
2019-03-29T01:09:44.810Z,16.25
2019-03-29T01:10:58.054Z,17.02
2019-03-29T01:12:11.284Z,16.42
2019-03-29T01:13:24.934Z,17.25
2019-03-29T01:14:38.225Z,15.20
2019-03-29T01:15:51.456Z,15.48
2019-03-29T01:17:04.696Z,16.55
2019-03-29T01:18:17.913Z,18.70
2019-03-29T01:19:31.150Z,18.02
2019-03-29T01:20:44.373Z,16.25
2019-03-29T01:21:57.605Z,15.35
2019-03-29T01:23:10.834Z,16.65
2019-03-29T01:24:24.062Z,16.70
2019-03-29T01:25:37.288Z,21.35
2019-03-29T01:26:50.554Z,20.23
2019-03-29T01:28:03.778Z,18.90
2019-03-29T01:29:17.010Z,19.15
2019-03-29T01:30:30.234Z,19.57
2019-03-29T01:31:43.461Z,16.25
2019-03-29T01:32:56.697Z,17.23
2019-03-29T01:34:09.925Z,17.10
2019-03-29T01:35:23.157Z,16.37
2019-03-29T01:36:36.391Z,16.82
2019-03-29T01:37:49.614Z,19.98
2019-03-29T01:39:04.346Z,19.45
2019-03-29T01:40:17.569Z,19.55
2019-03-29T01:41:30.817Z,20.88
2019-03-29T01:42:44.934Z,17.05
2019-03-29T01:43:58.270Z,18.15
2019-03-29T01:45:11.521Z,16.82
2019-03-29T01:46:25.737Z,18.42
2019-03-29T01:47:38.969Z,20.70
2019-03-29T01:48:52.186Z,18.17
2019-03-29T01:50:07.995Z,19.27
2019-03-29T01:51:21.430Z,18.05
2019-03-29T01:52:34.653Z,17.70
2019-03-29T01:53:47.881Z,20.10
2019-03-29T01:55:01.116Z,18.52
2019-03-29T01:56:14.960Z,18.90
2019-03-29T01:57:28.191Z,20.30
2019-03-29T01:58:41.417Z,19.98
2019-03-29T01:59:54.645Z,21.70
2019-03-29T02:01:07.887Z,18.92
2019-03-29T02:02:21.274Z,20.08
2019-03-29T02:03:34.530Z,20.10
2019-03-29T02:04:47.997Z,22.35
2019-03-29T02:06:01.238Z,20.50
2019-03-29T02:07:14.481Z,20.00
2019-03-29T02:08:35.561Z,21.12
2019-03-29T02:09:44.341Z,24.20
2019-03-29T02:10:57.565Z,21.52
2019-03-29T02:12:10.789Z,19.82
2019-03-29T02:13:24.026Z,21.42
2019-03-29T02:14:37.284Z,18.30
2019-03-29T02:15:50.510Z,21.75
2019-03-29T02:17:03.748Z,23.57
2019-03-29T02:18:16.964Z,23.57
2019-03-29T02:19:30.204Z,20.50
2019-03-29T02:20:43.438Z,23.55
2019-03-29T02:21:56.668Z,21.55
2019-03-29T02:23:09.899Z,24.40
2019-03-29T02:24:23.269Z,18.48
2019-03-29T02:25:37.274Z,22.90
2019-03-29T02:26:50.505Z,20.15
2019-03-29T02:28:03.720Z,21.40
2019-03-29T02:29:16.953Z,22.55
2019-03-29T02:30:32.063Z,22.73
2019-03-29T02:31:45.163Z,23.83
2019-03-29T02:32:58.375Z,22.27
2019-03-29T02:34:11.614Z,21.35
2019-03-29T02:35:24.851Z,22.30
2019-03-29T02:36:38.101Z,20.37
2019-03-29T02:37:51.327Z,21.20
2019-03-29T02:39:05.006Z,21.85
2019-03-29T02:40:18.246Z,22.60
2019-03-29T02:41:31.460Z,21.00
2019-03-29T02:42:44.693Z,22.00
2019-03-29T02:43:57.937Z,21.70
2019-03-29T02:45:11.158Z,23.55
2019-03-29T02:46:25.647Z,21.42
2019-03-29T02:47:39.386Z,26.68
2019-03-29T02:48:52.630Z,24.67
2019-03-29T02:50:05.946Z,28.85
2019-03-29T02:51:19.190Z,27.35
2019-03-29T02:52:32.414Z,21.65
2019-03-29T02:53:46.009Z,27.80
2019-03-29T02:54:59.256Z,24.60
2019-03-29T02:56:12.505Z,23.77
2019-03-29T02:57:25.798Z,23.30
2019-03-29T02:58:39.025Z,26.85
2019-03-29T02:59:52.259Z,23.02
2019-03-29T03:01:05.491Z,24.15
2019-03-29T03:02:18.714Z,26.68
2019-03-29T03:03:33.596Z,23.90
2019-03-29T03:04:46.818Z,24.52
2019-03-29T03:06:00.061Z,25.97
2019-03-29T03:07:13.288Z,22.85
2019-03-29T03:08:26.518Z,24.15
2019-03-29T03:09:39.744Z,21.05
2019-03-29T03:10:52.976Z,21.45
2019-03-29T03:12:06.223Z,23.38
2019-03-29T03:13:19.458Z,20.85
2019-03-29T03:14:32.680Z,24.10
2019-03-29T03:15:45.914Z,21.48
2019-03-29T03:16:59.143Z,23.92
2019-03-29T03:18:12.381Z,22.80
2019-03-29T03:19:25.625Z,22.13
2019-03-29T03:20:38.851Z,24.23
2019-03-29T03:21:52.313Z,23.32
2019-03-29T03:23:05.562Z,21.73
2019-03-29T03:24:18.794Z,21.93
2019-03-29T03:25:32.024Z,21.77
2019-03-29T03:26:45.253Z,26.45
2019-03-29T03:27:58.491Z,22.73
2019-03-29T03:29:11.711Z,22.32
2019-03-29T03:30:25.168Z,25.68
2019-03-29T03:31:38.459Z,21.70
2019-03-29T03:32:51.750Z,24.15
2019-03-29T03:34:04.974Z,24.43
2019-03-29T03:35:18.199Z,26.55
2019-03-29T03:36:31.436Z,24.90
2019-03-29T03:37:44.689Z,21.57
2019-03-29T03:38:57.929Z,23.32
2019-03-29T03:40:11.165Z,22.65
2019-03-29T03:41:24.484Z,22.02
2019-03-29T03:42:37.795Z,23.87
2019-03-29T03:43:51.020Z,27.65
2019-03-29T03:45:07.176Z,26.60
2019-03-29T03:46:20.409Z,22.00
2019-03-29T03:47:34.595Z,22.75
2019-03-29T03:48:47.830Z,24.60
2019-03-29T03:50:01.742Z,24.37
2019-03-29T03:51:15.288Z,21.25
2019-03-29T03:52:28.526Z,22.73
2019-03-29T03:53:41.750Z,23.05
2019-03-29T03:54:55.066Z,24.80
2019-03-29T03:56:08.357Z,25.15
2019-03-29T03:57:21.684Z,24.47
2019-03-29T03:58:34.910Z,26.07
2019-03-29T03:59:48.144Z,25.02
2019-03-29T04:01:01.450Z,22.98
2019-03-29T04:02:14.674Z,28.00
2019-03-29T04:03:27.910Z,27.82
2019-03-29T04:04:41.131Z,26.27
2019-03-29T04:05:54.360Z,30.23
2019-03-29T04:07:07.589Z,29.15
2019-03-29T04:08:20.842Z,26.87
2019-03-29T04:09:48.507Z,27.95
2019-03-29T04:10:50.096Z,25.17
2019-03-29T04:12:03.635Z,34.53
2019-03-29T04:13:16.884Z,25.85
2019-03-29T04:14:31.365Z,33.05
2019-03-29T04:15:44.601Z,28.40
2019-03-29T04:16:57.831Z,27.32
2019-03-29T04:18:15.379Z,30.12
2019-03-29T04:19:26.027Z,32.93
2019-03-29T04:20:39.261Z,30.77
2019-03-29T04:21:52.485Z,26.77
2019-03-29T04:23:05.705Z,28.50
2019-03-29T04:24:18.937Z,26.93
2019-03-29T04:25:32.181Z,26.42
2019-03-29T04:26:45.394Z,30.08
2019-03-29T04:27:59.209Z,30.48
2019-03-29T04:29:12.492Z,26.52
2019-03-29T04:30:25.802Z,30.23
2019-03-29T04:31:39.059Z,29.95
2019-03-29T04:32:52.481Z,27.52
2019-03-29T04:34:05.988Z,30.68
2019-03-29T04:35:19.290Z,32.23
2019-03-29T04:36:32.532Z,29.92
2019-03-29T04:37:45.771Z,26.37
2019-03-29T04:38:58.995Z,28.27
2019-03-29T04:40:12.218Z,26.48
2019-03-29T04:41:25.462Z,29.48
2019-03-29T04:42:38.695Z,27.62
2019-03-29T04:43:51.935Z,27.05
2019-03-29T04:45:05.802Z,28.23
2019-03-29T04:46:19.018Z,29.40
2019-03-29T04:47:32.272Z,30.02
2019-03-29T04:48:45.502Z,26.12
2019-03-29T04:49:58.726Z,26.93
2019-03-29T04:51:11.957Z,29.92
2019-03-29T04:52:25.176Z,27.77
2019-03-29T04:53:39.972Z,30.52
2019-03-29T04:54:53.160Z,30.30
2019-03-29T04:56:06.386Z,28.90
2019-03-29T04:57:19.609Z,29.12
2019-03-29T04:58:32.861Z,30.52
2019-03-29T04:59:46.086Z,30.85
2019-03-29T05:00:59.314Z,29.18
2019-03-29T05:02:12.533Z,30.97
2019-03-29T05:03:25.773Z,27.85
2019-03-29T05:04:39.012Z,29.18
2019-03-29T05:05:52.246Z,33.00
2019-03-29T05:07:05.478Z,30.23
2019-03-29T05:08:20.327Z,28.65
2019-03-29T05:09:33.578Z,29.90
2019-03-29T05:10:47.789Z,32.78
2019-03-29T05:12:01.016Z,32.63
2019-03-29T05:13:14.264Z,28.55
2019-03-29T05:14:27.485Z,29.00
2019-03-29T05:15:40.713Z,32.10
2019-03-29T05:16:53.942Z,28.60
2019-03-29T05:18:07.173Z,30.55
2019-03-29T05:19:20.408Z,31.10
2019-03-29T05:20:33.658Z,27.60
2019-03-29T05:21:51.587Z,30.10
2019-03-29T05:23:04.831Z,34.63
2019-03-29T05:24:20.122Z,25.45
2019-03-29T05:25:37.231Z,29.87
2019-03-29T05:26:52.485Z,29.70
2019-03-29T05:28:05.429Z,29.30
2019-03-29T05:29:18.653Z,29.48
2019-03-29T05:30:31.876Z,31.55
2019-03-29T05:31:49.558Z,28.73
2019-03-29T05:33:00.405Z,28.17
2019-03-29T05:34:13.635Z,29.63
2019-03-29T05:35:26.868Z,32.53
2019-03-29T05:36:40.102Z,31.62
2019-03-29T05:37:53.814Z,32.23
2019-03-29T05:39:07.045Z,29.10
2019-03-29T05:40:34.001Z,27.85
2019-03-29T05:41:35.242Z,27.85
2019-03-29T05:42:48.481Z,26.33
2019-03-29T05:44:01.714Z,30.55
2019-03-29T05:45:14.958Z,29.63
2019-03-29T05:46:28.185Z,28.98
2019-03-29T05:47:41.423Z,29.63
2019-03-29T05:48:54.669Z,31.02
2019-03-29T05:50:07.884Z,28.73
2019-03-29T05:51:21.123Z,30.92
2019-03-29T05:52:34.349Z,28.20
2019-03-29T05:53:47.578Z,35.43
2019-03-29T05:55:00.824Z,29.23
2019-03-29T05:56:14.041Z,35.10
2019-03-29T05:57:27.288Z,34.67
2019-03-29T05:58:40.533Z,33.15
2019-03-29T05:59:53.770Z,36.75
2019-03-29T06:01:07.002Z,29.37
2019-03-29T06:02:20.237Z,31.10
2019-03-29T06:03:33.472Z,35.00
2019-03-29T06:04:46.726Z,29.75
2019-03-29T06:05:59.958Z,37.65
2019-03-29T06:07:13.194Z,32.90
2019-03-29T06:08:26.418Z,28.75
2019-03-29T06:09:39.681Z,29.40
2019-03-29T06:10:52.957Z,28.50
2019-03-29T06:12:07.822Z,26.97
2019-03-29T06:13:21.055Z,32.73
2019-03-29T06:14:34.306Z,31.60
2019-03-29T06:15:47.598Z,29.72
2019-03-29T06:17:00.816Z,31.97
2019-03-29T06:18:14.037Z,33.95
2019-03-29T06:19:27.322Z,34.25
2019-03-29T06:20:40.547Z,30.57
2019-03-29T06:21:53.783Z,31.23
2019-03-29T06:23:07.028Z,30.70
2019-03-29T06:24:20.239Z,30.32
2019-03-29T06:25:33.490Z,30.12
2019-03-29T06:26:46.729Z,27.60
2019-03-29T06:28:00.151Z,28.27
2019-03-29T06:29:13.376Z,29.27
2019-03-29T06:30:29.649Z,27.77
2019-03-29T06:31:42.900Z,30.82
2019-03-29T06:32:56.131Z,30.82
2019-03-29T06:34:09.389Z,30.05
2019-03-29T06:35:22.614Z,27.50
2019-03-29T06:36:35.855Z,30.32
2019-03-29T06:37:49.082Z,29.92
2019-03-29T06:39:02.318Z,27.95
2019-03-29T06:40:24.264Z,34.45
2019-03-29T06:41:37.557Z,31.42
2019-03-29T06:42:50.789Z,30.02
2019-03-29T06:44:04.037Z,28.32
2019-03-29T06:45:17.261Z,26.42
2019-03-29T06:46:30.485Z,29.27
2019-03-29T06:47:43.719Z,31.00
2019-03-29T06:48:56.948Z,29.80
2019-03-29T06:50:10.183Z,28.83
2019-03-29T06:51:23.418Z,29.32
2019-03-29T06:52:36.648Z,31.85
2019-03-29T06:53:52.723Z,31.40
2019-03-29T06:55:06.253Z,29.02
2019-03-29T06:56:19.494Z,32.17
2019-03-29T06:57:32.722Z,32.38
2019-03-29T06:58:45.937Z,33.73
2019-03-29T06:59:59.163Z,31.73
2019-03-29T07:01:12.397Z,34.48
2019-03-29T07:02:25.631Z,34.23
2019-03-29T07:03:38.862Z,31.70
2019-03-29T07:04:52.089Z,31.90
2019-03-29T07:06:05.325Z,31.23
2019-03-29T07:07:18.558Z,32.65
2019-03-29T07:08:31.800Z,33.70
2019-03-29T07:09:45.021Z,33.98
2019-03-29T07:10:58.256Z,28.87
2019-03-29T07:12:11.578Z,32.40
2019-03-29T07:13:24.806Z,35.48
2019-03-29T07:14:38.035Z,31.12
2019-03-29T07:15:51.272Z,27.77
2019-03-29T07:17:04.515Z,32.13
2019-03-29T07:18:17.740Z,30.12
2019-03-29T07:19:30.993Z,27.70
2019-03-29T07:20:44.206Z,31.50
2019-03-29T07:21:57.451Z,34.33
2019-03-29T07:23:10.681Z,28.40
2019-03-29T07:24:23.914Z,28.50
2019-03-29T07:25:37.511Z,27.80
2019-03-29T07:26:50.743Z,33.08
2019-03-29T07:28:03.977Z,30.05
2019-03-29T07:29:17.212Z,31.10
2019-03-29T07:30:30.433Z,31.02
2019-03-29T07:31:43.665Z,29.63
2019-03-29T07:32:57.185Z,30.95
2019-03-29T07:34:10.421Z,31.07
2019-03-29T07:35:23.721Z,30.97
2019-03-29T07:36:36.954Z,27.25
2019-03-29T07:37:50.194Z,27.60
2019-03-29T07:39:04.358Z,33.90
2019-03-29T07:40:17.590Z,30.35
2019-03-29T07:41:32.430Z,33.00
2019-03-29T07:42:45.833Z,29.52
2019-03-29T07:43:59.090Z,33.48
2019-03-29T07:45:12.323Z,31.52
2019-03-29T07:46:25.550Z,29.25
2019-03-29T07:47:38.778Z,25.68
2019-03-29T07:48:52.016Z,30.30
2019-03-29T07:50:06.186Z,28.92
2019-03-29T07:51:19.414Z,35.83
2019-03-29T07:52:32.654Z,33.55
2019-03-29T07:53:45.907Z,35.92
2019-03-29T07:54:59.145Z,29.85
2019-03-29T07:56:12.368Z,31.00
2019-03-29T07:57:25.599Z,30.95
2019-03-29T07:58:39.081Z,30.45
2019-03-29T07:59:52.315Z,33.75
2019-03-29T08:01:05.543Z,28.52
2019-03-29T08:02:18.771Z,42.45
2019-03-29T08:03:32.004Z,33.55
2019-03-29T08:04:46.620Z,29.63
2019-03-29T08:05:59.908Z,31.12
2019-03-29T08:07:26.304Z,30.97
2019-03-29T08:08:32.325Z,30.43
2019-03-29T08:09:43.022Z,30.88
2019-03-29T08:10:56.266Z,32.55
2019-03-29T08:12:09.508Z,32.30
2019-03-29T08:13:22.800Z,33.05
2019-03-29T08:14:36.036Z,32.33
2019-03-29T08:15:49.264Z,33.33
2019-03-29T08:17:02.505Z,32.30
2019-03-29T08:18:15.738Z,29.20
2019-03-29T08:19:28.962Z,31.20
2019-03-29T08:20:44.554Z,30.55
2019-03-29T08:21:57.929Z,32.55
2019-03-29T08:23:11.351Z,28.35
2019-03-29T08:24:26.221Z,31.60
2019-03-29T08:25:39.455Z,33.13
2019-03-29T08:26:52.716Z,30.92
2019-03-29T08:28:06.021Z,28.32
2019-03-29T08:29:19.252Z,32.08
2019-03-29T08:30:32.489Z,25.02
2019-03-29T08:31:45.716Z,25.05
2019-03-29T08:32:58.965Z,28.15
2019-03-29T08:34:12.213Z,24.10
2019-03-29T08:35:25.438Z,28.87
2019-03-29T08:36:38.671Z,26.97
2019-03-29T08:37:51.914Z,24.72
2019-03-29T08:39:10.063Z,27.13
2019-03-29T08:40:21.715Z,27.85
2019-03-29T08:41:34.994Z,25.80
2019-03-29T08:42:48.244Z,26.77
2019-03-29T08:44:01.478Z,27.90
2019-03-29T08:45:14.705Z,25.55
2019-03-29T08:46:27.941Z,23.02
2019-03-29T08:47:41.178Z,27.17
2019-03-29T08:48:54.431Z,24.18
2019-03-29T08:50:07.646Z,23.83
2019-03-29T08:51:20.884Z,24.45
2019-03-29T08:52:35.932Z,24.87
2019-03-29T08:53:49.166Z,25.40
2019-03-29T08:55:02.427Z,23.38
2019-03-29T08:56:16.976Z,22.77
2019-03-29T08:57:30.266Z,21.80
2019-03-29T08:58:46.380Z,21.75
2019-03-29T08:59:58.453Z,24.35
2019-03-29T09:01:11.682Z,26.17
2019-03-29T09:02:25.326Z,21.87
2019-03-29T09:03:38.666Z,20.10
2019-03-29T09:04:53.548Z,21.02
2019-03-29T09:06:06.854Z,17.50
2019-03-29T09:07:20.090Z,19.42
2019-03-29T09:08:33.325Z,20.08
2019-03-29T09:09:46.706Z,17.67
2019-03-29T09:10:59.966Z,16.17
2019-03-29T09:12:14.687Z,18.87
2019-03-29T09:13:28.223Z,18.55
2019-03-29T09:14:41.454Z,18.85
2019-03-29T09:15:54.710Z,18.40
2019-03-29T09:17:07.949Z,18.00
2019-03-29T09:18:21.261Z,17.80
2019-03-29T09:19:34.489Z,18.77
2019-03-29T09:20:47.727Z,17.80
2019-03-29T09:22:00.961Z,17.48
2019-03-29T09:23:14.194Z,18.37
2019-03-29T09:24:27.440Z,16.73
2019-03-29T09:25:40.728Z,15.68
2019-03-29T09:26:53.977Z,19.87
2019-03-29T09:28:07.209Z,15.78
2019-03-29T09:29:20.449Z,20.85
2019-03-29T09:30:33.683Z,16.95
2019-03-29T09:31:46.908Z,17.27
2019-03-29T09:33:00.158Z,16.87
2019-03-29T09:34:13.385Z,15.53
2019-03-29T09:35:26.613Z,18.30
2019-03-29T09:36:39.854Z,16.95
2019-03-29T09:37:56.414Z,16.70
2019-03-29T09:39:08.299Z,14.78
2019-03-29T09:40:21.625Z,16.12
2019-03-29T09:41:34.845Z,14.53
2019-03-29T09:42:52.164Z,18.10
2019-03-29T09:44:03.053Z,21.52
2019-03-29T09:45:16.300Z,15.30
2019-03-29T09:46:29.521Z,18.73
2019-03-29T09:47:42.771Z,17.05
2019-03-29T09:48:56.006Z,16.40
2019-03-29T09:50:10.529Z,15.68
2019-03-29T09:51:24.131Z,15.83
2019-03-29T09:52:37.363Z,14.00
2019-03-29T09:53:50.605Z,14.65
2019-03-29T09:55:04.242Z,13.83
2019-03-29T09:56:17.479Z,14.87
2019-03-29T09:57:37.506Z,14.53
2019-03-29T09:58:45.649Z,16.62
2019-03-29T09:59:58.895Z,19.30
2019-03-29T10:01:12.136Z,16.90
2019-03-29T10:02:27.074Z,13.65
2019-03-29T10:03:40.319Z,14.30
2019-03-29T10:04:53.546Z,14.30
2019-03-29T10:06:06.815Z,16.45
2019-03-29T10:07:20.026Z,13.15
2019-03-29T10:08:33.257Z,15.85
2019-03-29T10:09:46.494Z,14.75
2019-03-29T10:10:59.716Z,14.15
2019-03-29T10:12:12.957Z,14.30
2019-03-29T10:13:26.188Z,13.80
2019-03-29T10:14:39.420Z,13.75
2019-03-29T10:15:52.646Z,13.13
2019-03-29T10:17:05.882Z,16.23
2019-03-29T10:18:19.131Z,16.17
2019-03-29T10:19:32.367Z,13.48
2019-03-29T10:20:45.847Z,13.95
2019-03-29T10:21:59.086Z,14.78
2019-03-29T10:23:12.319Z,14.25
2019-03-29T10:24:25.576Z,12.95
2019-03-29T10:25:38.804Z,13.50
2019-03-29T10:26:52.037Z,17.07
2019-03-29T10:28:05.275Z,13.95
2019-03-29T10:29:18.520Z,15.08
2019-03-29T10:30:46.641Z,12.73
2019-03-29T10:31:59.057Z,11.00
2019-03-29T10:33:12.278Z,11.33
2019-03-29T10:34:25.532Z,11.40
2019-03-29T10:35:50.995Z,12.33
2019-03-29T10:36:53.733Z,14.05
2019-03-29T10:38:06.946Z,20.30
2019-03-29T10:39:20.181Z,13.20
2019-03-29T10:40:33.427Z,11.97
2019-03-29T10:41:46.653Z,9.93
2019-03-29T10:42:59.883Z,10.82
2019-03-29T10:44:13.118Z,11.93
2019-03-29T10:45:26.350Z,12.63
2019-03-29T10:46:39.585Z,10.72
2019-03-29T10:47:52.817Z,13.48
2019-03-29T10:49:06.037Z,11.63
2019-03-29T10:50:19.261Z,13.45
2019-03-29T10:51:32.504Z,12.80
2019-03-29T10:52:45.730Z,12.20
2019-03-29T10:53:58.962Z,10.13
2019-03-29T10:55:12.382Z,12.58
2019-03-29T10:56:34.031Z,12.33
2019-03-29T10:57:40.562Z,12.43
2019-03-29T10:58:53.796Z,12.80
2019-03-29T11:00:12.273Z,15.03
2019-03-29T11:01:25.518Z,13.75
2019-03-29T11:02:38.775Z,9.68
2019-03-29T11:03:52.049Z,11.20
2019-03-29T11:05:06.324Z,12.85
2019-03-29T11:06:19.549Z,12.13
2019-03-29T11:07:32.785Z,11.90
2019-03-29T11:08:46.018Z,14.35
2019-03-29T11:09:59.320Z,13.45
2019-03-29T11:11:12.546Z,11.08
2019-03-29T11:12:26.237Z,10.48
2019-03-29T11:13:41.223Z,12.78
2019-03-29T11:14:54.433Z,14.83
2019-03-29T11:16:07.660Z,12.25
2019-03-29T11:17:20.896Z,10.28
2019-03-29T11:18:35.158Z,12.70
2019-03-29T11:19:48.377Z,14.95
2019-03-29T11:21:01.604Z,12.10
2019-03-29T11:22:14.839Z,11.75
2019-03-29T11:23:28.081Z,11.48
2019-03-29T11:24:41.390Z,12.15
2019-03-29T11:25:54.617Z,9.55
2019-03-29T11:27:07.851Z,9.25
2019-03-29T11:28:21.078Z,10.32
2019-03-29T11:29:34.302Z,11.38
2019-03-29T11:30:47.534Z,11.63
2019-03-29T11:32:00.771Z,11.95
2019-03-29T11:33:14.001Z,13.78
2019-03-29T11:34:27.230Z,10.50
2019-03-29T11:35:40.476Z,11.25
2019-03-29T11:36:53.701Z,13.08
2019-03-29T11:38:06.930Z,14.58
2019-03-29T11:39:20.157Z,15.35
2019-03-29T11:40:33.377Z,12.10
2019-03-29T11:41:46.633Z,14.58
2019-03-29T11:42:59.861Z,12.93
2019-03-29T11:44:13.092Z,12.13
2019-03-29T11:45:26.326Z,11.65
2019-03-29T11:46:39.550Z,14.28
2019-03-29T11:48:06.855Z,11.33
2019-03-29T11:49:07.741Z,11.08
2019-03-29T11:50:20.957Z,8.83
2019-03-29T11:51:34.653Z,13.65
2019-03-29T11:52:47.888Z,10.90
2019-03-29T11:54:01.142Z,11.10
2019-03-29T11:55:14.375Z,10.50
2019-03-29T11:56:27.612Z,10.80
2019-03-29T11:57:40.838Z,8.73
2019-03-29T11:58:54.069Z,8.33
2019-03-29T12:00:10.730Z,10.13
2019-03-29T12:01:23.950Z,9.65
2019-03-29T12:02:37.166Z,9.78
2019-03-29T12:03:50.467Z,10.30
2019-03-29T12:05:04.331Z,9.15
2019-03-29T12:06:17.567Z,11.15
2019-03-29T12:07:30.789Z,9.25
2019-03-29T12:08:44.022Z,10.32
2019-03-29T12:09:57.323Z,10.15
2019-03-29T12:11:10.580Z,9.20
2019-03-29T12:12:27.326Z,9.93
2019-03-29T12:13:41.313Z,10.98
2019-03-29T12:14:53.733Z,8.85
2019-03-29T12:16:07.241Z,10.03
2019-03-29T12:17:20.637Z,10.63
2019-03-29T12:18:47.090Z,10.93
2019-03-29T12:19:51.885Z,9.35
2019-03-29T12:21:05.118Z,10.82
2019-03-29T12:22:18.350Z,10.38
2019-03-29T12:23:31.579Z,11.95
2019-03-29T12:24:44.828Z,10.43
2019-03-29T12:25:58.054Z,10.95
2019-03-29T12:27:11.294Z,10.72
2019-03-29T12:28:24.522Z,10.38
2019-03-29T12:29:37.748Z,9.15
2019-03-29T12:30:50.998Z,12.80
2019-03-29T12:32:04.318Z,11.38
2019-03-29T12:33:17.555Z,11.43
2019-03-29T12:34:30.782Z,10.32
2019-03-29T12:35:44.043Z,10.00
2019-03-29T12:36:57.267Z,11.38
2019-03-29T12:38:10.505Z,10.55
2019-03-29T12:39:23.733Z,10.30
2019-03-29T12:40:36.962Z,12.88
2019-03-29T12:41:50.221Z,11.80
2019-03-29T12:43:04.830Z,9.78
2019-03-29T12:44:18.068Z,11.12
2019-03-29T12:45:31.290Z,9.50
2019-03-29T12:46:44.518Z,11.40
2019-03-29T12:47:57.761Z,8.78
2019-03-29T12:49:10.986Z,9.80
2019-03-29T12:50:24.262Z,9.95
2019-03-29T12:51:37.501Z,9.60
2019-03-29T12:52:50.793Z,12.80
2019-03-29T12:54:04.077Z,12.23
2019-03-29T12:55:17.305Z,9.98
2019-03-29T12:56:30.533Z,10.25
2019-03-29T12:57:43.770Z,11.40
2019-03-29T12:58:57.001Z,11.18
2019-03-29T13:00:10.318Z,12.37
2019-03-29T13:01:23.566Z,10.50
2019-03-29T13:02:36.848Z,10.95
2019-03-29T13:03:50.110Z,11.20
2019-03-29T13:05:03.624Z,9.40
2019-03-29T13:06:16.931Z,10.58
2019-03-29T13:07:30.153Z,10.70
2019-03-29T13:08:43.390Z,11.55
2019-03-29T13:09:56.649Z,10.45
2019-03-29T13:11:09.894Z,10.58
2019-03-29T13:12:24.146Z,10.75
2019-03-29T13:13:37.381Z,9.63
2019-03-29T13:14:50.610Z,10.53
2019-03-29T13:16:03.837Z,10.18
2019-03-29T13:17:17.441Z,11.00
2019-03-29T13:18:30.700Z,10.55
2019-03-29T13:19:43.925Z,10.82
2019-03-29T13:20:57.157Z,11.68
2019-03-29T13:22:10.948Z,10.53
2019-03-29T13:23:24.182Z,11.35
2019-03-29T13:24:37.426Z,11.35
2019-03-29T13:25:50.650Z,11.68
2019-03-29T13:27:03.892Z,9.98
2019-03-29T13:28:17.116Z,10.85
2019-03-29T13:29:30.396Z,10.53
2019-03-29T13:30:43.709Z,9.50
2019-03-29T13:31:56.918Z,10.48
2019-03-29T13:33:10.154Z,10.43
2019-03-29T13:34:23.389Z,9.65
2019-03-29T13:35:36.605Z,9.08
2019-03-29T13:36:49.829Z,9.68
2019-03-29T13:38:03.062Z,9.83
2019-03-29T13:39:16.311Z,9.70
2019-03-29T13:40:29.538Z,10.58
2019-03-29T13:41:42.768Z,8.93
2019-03-29T13:42:55.995Z,9.58
2019-03-29T13:44:22.997Z,10.45
2019-03-29T13:45:27.584Z,10.10
2019-03-29T13:46:39.133Z,7.50
2019-03-29T13:47:52.353Z,11.03
2019-03-29T13:49:05.610Z,9.68
2019-03-29T13:50:18.905Z,9.85
2019-03-29T13:51:51.686Z,9.60
2019-03-29T13:53:06.173Z,9.23
2019-03-29T13:54:19.411Z,8.70
2019-03-29T13:55:32.644Z,11.03
2019-03-29T13:56:45.865Z,8.78
2019-03-29T13:57:59.130Z,11.65
2019-03-29T13:59:12.372Z,11.93
2019-03-29T14:00:25.648Z,10.53
2019-03-29T14:01:38.899Z,8.98
2019-03-29T14:02:52.117Z,9.28
2019-03-29T14:04:05.391Z,11.90
2019-03-29T14:05:18.638Z,11.25
2019-03-29T14:06:31.878Z,9.80
2019-03-29T14:07:45.121Z,9.55
2019-03-29T14:08:58.346Z,10.78
2019-03-29T14:10:11.585Z,10.70
2019-03-29T14:11:24.812Z,11.18
2019-03-29T14:12:38.977Z,10.70
2019-03-29T14:13:52.206Z,10.55
2019-03-29T14:15:07.684Z,10.32
2019-03-29T14:16:20.929Z,10.15
2019-03-29T14:17:34.157Z,10.65
2019-03-29T14:18:47.398Z,10.90
2019-03-29T14:20:00.622Z,12.82
2019-03-29T14:21:13.864Z,11.12
2019-03-29T14:22:30.011Z,11.55
2019-03-29T14:23:43.320Z,10.65
2019-03-29T14:24:59.390Z,13.03
2019-03-29T14:26:12.614Z,11.10
2019-03-29T14:27:26.867Z,11.35
2019-03-29T14:28:41.182Z,11.25
2019-03-29T14:30:04.167Z,12.13
2019-03-29T14:31:10.993Z,11.63
2019-03-29T14:32:24.233Z,10.68
2019-03-29T14:33:37.465Z,10.78
2019-03-29T14:34:50.726Z,11.15
2019-03-29T14:36:03.950Z,10.68
2019-03-29T14:37:17.181Z,11.22
2019-03-29T14:38:30.418Z,13.68
2019-03-29T14:39:43.682Z,11.50
2019-03-29T14:40:58.618Z,12.47
2019-03-29T14:42:12.801Z,10.32
2019-03-29T14:43:27.774Z,10.58
2019-03-29T14:44:52.185Z,10.93
2019-03-29T14:46:00.329Z,11.97
2019-03-29T14:47:14.829Z,13.70
2019-03-29T14:48:28.321Z,12.63
2019-03-29T14:49:41.574Z,11.70
2019-03-29T14:50:54.805Z,9.98
2019-03-29T14:52:08.080Z,10.80
2019-03-29T14:53:21.373Z,11.00
2019-03-29T14:54:37.498Z,12.23
2019-03-29T14:55:50.744Z,11.83
2019-03-29T14:57:05.801Z,11.70
2019-03-29T14:58:19.130Z,11.28
2019-03-29T14:59:35.517Z,10.85
2019-03-29T15:00:49.193Z,11.90
2019-03-29T15:02:04.891Z,11.08
2019-03-29T15:03:18.199Z,10.88
2019-03-29T15:04:31.449Z,10.75
2019-03-29T15:05:44.679Z,12.05
2019-03-29T15:06:57.909Z,14.25
2019-03-29T15:08:11.145Z,12.60
2019-03-29T15:09:25.584Z,11.95
2019-03-29T15:10:38.813Z,12.43
2019-03-29T15:11:52.058Z,13.10
2019-03-29T15:13:05.286Z,11.88
2019-03-29T15:14:18.515Z,12.18
2019-03-29T15:15:31.763Z,19.70
2019-03-29T15:16:45.002Z,13.15
2019-03-29T15:17:59.501Z,15.45
2019-03-29T15:19:12.827Z,13.95
2019-03-29T15:20:26.055Z,13.32
2019-03-29T15:21:39.285Z,13.75
2019-03-29T15:22:52.520Z,12.43
2019-03-29T15:24:05.745Z,12.63
2019-03-29T15:25:18.986Z,14.65
2019-03-29T15:26:32.230Z,12.70
2019-03-29T15:27:45.459Z,12.33
2019-03-29T15:28:58.700Z,17.62
2019-03-29T15:30:11.937Z,11.25
2019-03-29T15:31:25.172Z,15.72
2019-03-29T15:32:38.402Z,12.88
2019-03-29T15:33:51.638Z,12.98
2019-03-29T15:35:06.305Z,13.13
2019-03-29T15:36:19.537Z,12.13
2019-03-29T15:37:32.791Z,12.50
2019-03-29T15:38:46.021Z,14.18
2019-03-29T15:39:59.258Z,12.85
2019-03-29T15:41:12.913Z,15.18
2019-03-29T15:42:27.789Z,16.95
2019-03-29T15:43:41.033Z,14.65
2019-03-29T15:44:54.255Z,13.78
2019-03-29T15:46:07.495Z,12.60
2019-03-29T15:47:20.725Z,14.23
2019-03-29T15:48:33.973Z,15.58
2019-03-29T15:49:55.907Z,14.25